sensor_id;sensor_type;location;lat;lon;timestamp;temperature;humidity
2751;DHT22;1383;48.362;10.908;2023-07-09T00:00:52;21.50;51.50
2751;DHT22;1383;48.362;10.908;2023-07-09T00:03:19;21.50;50.90
2751;DHT22;1383;48.362;10.908;2023-07-09T00:05:48;21.50;51.10
2751;DHT22;1383;48.362;10.908;2023-07-09T00:08:27;21.50;50.80
2751;DHT22;1383;48.362;10.908;2023-07-09T00:10:56;21.50;50.60
2751;DHT22;1383;48.362;10.908;2023-07-09T00:13:25;21.50;50.60
2751;DHT22;1383;48.362;10.908;2023-07-09T00:15:55;21.50;50.70
2751;DHT22;1383;48.362;10.908;2023-07-09T00:18:23;21.50;50.90
2751;DHT22;1383;48.362;10.908;2023-07-09T00:20:50;21.40;51.00
2751;DHT22;1383;48.362;10.908;2023-07-09T00:23:17;21.40;51.00
2751;DHT22;1383;48.362;10.908;2023-07-09T00:25:47;21.40;50.80
2751;DHT22;1383;48.362;10.908;2023-07-09T00:28:16;21.40;51.80
2751;DHT22;1383;48.362;10.908;2023-07-09T00:30:45;21.30;51.00
2751;DHT22;1383;48.362;10.908;2023-07-09T00:33:14;21.30;51.80
2751;DHT22;1383;48.362;10.908;2023-07-09T00:35:45;21.20;51.90
2751;DHT22;1383;48.362;10.908;2023-07-09T00:38:18;21.10;52.30
2751;DHT22;1383;48.362;10.908;2023-07-09T00:41:03;21.10;52.40
2751;DHT22;1383;48.362;10.908;2023-07-09T00:43:34;21.10;52.00
2751;DHT22;1383;48.362;10.908;2023-07-09T00:48:56;21.20;51.20
2751;DHT22;1383;48.362;10.908;2023-07-09T00:51:27;21.20;51.00
2751;DHT22;1383;48.362;10.908;2023-07-09T00:54:06;21.20;51.20
2751;DHT22;1383;48.362;10.908;2023-07-09T00:56:38;21.20;51.50
2751;DHT22;1383;48.362;10.908;2023-07-09T00:59:11;21.10;51.60
2751;DHT22;1383;48.362;10.908;2023-07-09T01:01:40;21.10;51.40
2751;DHT22;1383;48.362;10.908;2023-07-09T01:04:09;21.10;50.90
2751;DHT22;1383;48.362;10.908;2023-07-09T01:06:41;21.10;50.50
2751;DHT22;1383;48.362;10.908;2023-07-09T01:09:10;21.20;50.40
2751;DHT22;1383;48.362;10.908;2023-07-09T01:11:37;21.20;50.40
2751;DHT22;1383;48.362;10.908;2023-07-09T01:14:10;21.20;50.50
2751;DHT22;1383;48.362;10.908;2023-07-09T01:16:42;21.20;49.90
2751;DHT22;1383;48.362;10.908;2023-07-09T01:19:11;21.20;49.60
2751;DHT22;1383;48.362;10.908;2023-07-09T01:21:40;21.20;49.30
2751;DHT22;1383;48.362;10.908;2023-07-09T01:24:16;21.20;49.80
2751;DHT22;1383;48.362;10.908;2023-07-09T01:27:04;21.10;50.00
2751;DHT22;1383;48.362;10.908;2023-07-09T01:29:34;21.00;50.40
2751;DHT22;1383;48.362;10.908;2023-07-09T01:32:02;21.00;50.80
2751;DHT22;1383;48.362;10.908;2023-07-09T01:34:29;21.00;50.90
2751;DHT22;1383;48.362;10.908;2023-07-09T01:36:57;20.90;51.50
2751;DHT22;1383;48.362;10.908;2023-07-09T01:39:27;20.80;52.40
2751;DHT22;1383;48.362;10.908;2023-07-09T01:41:57;20.60;52.70
2751;DHT22;1383;48.362;10.908;2023-07-09T01:44:24;20.60;52.60
2751;DHT22;1383;48.362;10.908;2023-07-09T01:46:56;20.50;53.00
2751;DHT22;1383;48.362;10.908;2023-07-09T01:49:23;20.40;53.60
2751;DHT22;1383;48.362;10.908;2023-07-09T01:51:50;20.30;54.30
2751;DHT22;1383;48.362;10.908;2023-07-09T01:54:17;20.30;54.50
2751;DHT22;1383;48.362;10.908;2023-07-09T01:56:44;20.30;54.60
2751;DHT22;1383;48.362;10.908;2023-07-09T01:59:11;20.30;55.20
2751;DHT22;1383;48.362;10.908;2023-07-09T02:01:37;20.20;55.40
2751;DHT22;1383;48.362;10.908;2023-07-09T02:04:05;20.20;56.00
2751;DHT22;1383;48.362;10.908;2023-07-09T02:06:32;20.20;56.00
2751;DHT22;1383;48.362;10.908;2023-07-09T02:08:59;20.20;56.20
2751;DHT22;1383;48.362;10.908;2023-07-09T02:11:25;20.20;56.20
2751;DHT22;1383;48.362;10.908;2023-07-09T02:13:52;20.20;56.20
2751;DHT22;1383;48.362;10.908;2023-07-09T02:16:19;20.20;56.10
2751;DHT22;1383;48.362;10.908;2023-07-09T02:18:54;20.10;56.50
2751;DHT22;1383;48.362;10.908;2023-07-09T02:21:21;20.00;57.20
2751;DHT22;1383;48.362;10.908;2023-07-09T02:23:48;19.90;56.90
2751;DHT22;1383;48.362;10.908;2023-07-09T02:26:15;19.80;57.40
2751;DHT22;1383;48.362;10.908;2023-07-09T02:28:42;19.80;58.30
2751;DHT22;1383;48.362;10.908;2023-07-09T02:31:09;19.80;58.30
2751;DHT22;1383;48.362;10.908;2023-07-09T02:33:36;19.80;58.30
2751;DHT22;1383;48.362;10.908;2023-07-09T02:36:03;19.70;58.70
2751;DHT22;1383;48.362;10.908;2023-07-09T02:38:30;19.70;58.70
2751;DHT22;1383;48.362;10.908;2023-07-09T02:40:57;19.70;59.00
2751;DHT22;1383;48.362;10.908;2023-07-09T02:43:24;19.70;58.90
2751;DHT22;1383;48.362;10.908;2023-07-09T02:45:51;19.70;59.20
2751;DHT22;1383;48.362;10.908;2023-07-09T02:48:18;19.60;59.60
2751;DHT22;1383;48.362;10.908;2023-07-09T02:50:45;19.60;59.40
2751;DHT22;1383;48.362;10.908;2023-07-09T02:53:12;19.70;59.80
2751;DHT22;1383;48.362;10.908;2023-07-09T02:55:38;19.60;59.80
2751;DHT22;1383;48.362;10.908;2023-07-09T02:58:05;19.60;59.90
2751;DHT22;1383;48.362;10.908;2023-07-09T03:00:32;19.50;59.70
2751;DHT22;1383;48.362;10.908;2023-07-09T03:02:59;19.50;60.00
2751;DHT22;1383;48.362;10.908;2023-07-09T03:05:26;19.50;59.90
2751;DHT22;1383;48.362;10.908;2023-07-09T03:07:53;19.40;60.10
2751;DHT22;1383;48.362;10.908;2023-07-09T03:10:20;19.40;60.40
2751;DHT22;1383;48.362;10.908;2023-07-09T03:12:47;19.30;61.40
2751;DHT22;1383;48.362;10.908;2023-07-09T03:15:13;19.30;61.50
2751;DHT22;1383;48.362;10.908;2023-07-09T03:17:40;19.30;61.60
2751;DHT22;1383;48.362;10.908;2023-07-09T03:20:07;19.30;61.30
2751;DHT22;1383;48.362;10.908;2023-07-09T03:22:35;19.30;61.30
2751;DHT22;1383;48.362;10.908;2023-07-09T03:25:02;19.30;61.10
2751;DHT22;1383;48.362;10.908;2023-07-09T03:27:29;19.30;61.10
2751;DHT22;1383;48.362;10.908;2023-07-09T03:29:56;19.40;60.90
2751;DHT22;1383;48.362;10.908;2023-07-09T03:32:26;19.40;60.40
2751;DHT22;1383;48.362;10.908;2023-07-09T03:34:53;19.30;60.80
2751;DHT22;1383;48.362;10.908;2023-07-09T03:37:20;19.20;61.00
2751;DHT22;1383;48.362;10.908;2023-07-09T03:39:47;19.10;62.10
2751;DHT22;1383;48.362;10.908;2023-07-09T03:42:14;19.00;62.50
2751;DHT22;1383;48.362;10.908;2023-07-09T03:44:41;18.90;62.90
2751;DHT22;1383;48.362;10.908;2023-07-09T03:47:08;18.90;63.70
2751;DHT22;1383;48.362;10.908;2023-07-09T03:49:38;19.00;63.70
2751;DHT22;1383;48.362;10.908;2023-07-09T03:52:05;19.00;62.90
2751;DHT22;1383;48.362;10.908;2023-07-09T03:54:31;18.90;62.70
2751;DHT22;1383;48.362;10.908;2023-07-09T03:56:58;18.80;63.60
2751;DHT22;1383;48.362;10.908;2023-07-09T03:59:25;18.80;63.70
2751;DHT22;1383;48.362;10.908;2023-07-09T04:01:52;18.80;64.20
2751;DHT22;1383;48.362;10.908;2023-07-09T04:04:19;18.90;63.70
2751;DHT22;1383;48.362;10.908;2023-07-09T04:06:47;19.00;63.00
2751;DHT22;1383;48.362;10.908;2023-07-09T04:09:14;19.00;62.70
2751;DHT22;1383;48.362;10.908;2023-07-09T04:11:41;19.10;62.60
2751;DHT22;1383;48.362;10.908;2023-07-09T04:14:08;19.10;62.60
2751;DHT22;1383;48.362;10.908;2023-07-09T04:16:35;19.10;62.80
2751;DHT22;1383;48.362;10.908;2023-07-09T04:19:02;19.10;63.20
2751;DHT22;1383;48.362;10.908;2023-07-09T04:21:29;19.10;62.70
2751;DHT22;1383;48.362;10.908;2023-07-09T04:23:56;19.10;62.50
2751;DHT22;1383;48.362;10.908;2023-07-09T04:26:23;19.20;62.60
2751;DHT22;1383;48.362;10.908;2023-07-09T04:28:50;19.20;62.50
2751;DHT22;1383;48.362;10.908;2023-07-09T04:31:17;19.30;62.30
2751;DHT22;1383;48.362;10.908;2023-07-09T04:33:43;19.40;62.10
2751;DHT22;1383;48.362;10.908;2023-07-09T04:36:11;19.50;60.90
2751;DHT22;1383;48.362;10.908;2023-07-09T04:38:39;19.60;60.00
2751;DHT22;1383;48.362;10.908;2023-07-09T04:41:06;19.70;59.60
2751;DHT22;1383;48.362;10.908;2023-07-09T04:43:33;19.70;59.40
2751;DHT22;1383;48.362;10.908;2023-07-09T04:46:00;19.70;59.40
2751;DHT22;1383;48.362;10.908;2023-07-09T04:48:28;19.80;59.30
2751;DHT22;1383;48.362;10.908;2023-07-09T04:50:55;19.90;58.70
2751;DHT22;1383;48.362;10.908;2023-07-09T04:53:22;20.00;58.30
2751;DHT22;1383;48.362;10.908;2023-07-09T04:55:50;20.00;58.20
2751;DHT22;1383;48.362;10.908;2023-07-09T04:58:18;20.20;57.60
2751;DHT22;1383;48.362;10.908;2023-07-09T05:00:45;20.30;57.00
2751;DHT22;1383;48.362;10.908;2023-07-09T05:03:12;20.40;56.60
2751;DHT22;1383;48.362;10.908;2023-07-09T05:05:47;20.50;55.40
2751;DHT22;1383;48.362;10.908;2023-07-09T05:08:14;20.60;55.20
2751;DHT22;1383;48.362;10.908;2023-07-09T05:10:45;20.70;55.10
2751;DHT22;1383;48.362;10.908;2023-07-09T05:13:12;20.90;54.20
2751;DHT22;1383;48.362;10.908;2023-07-09T05:15:41;21.00;53.80
2751;DHT22;1383;48.362;10.908;2023-07-09T05:18:08;21.30;52.60
2751;DHT22;1383;48.362;10.908;2023-07-09T05:20:35;21.70;51.40
2751;DHT22;1383;48.362;10.908;2023-07-09T05:23:03;22.00;49.80
2751;DHT22;1383;48.362;10.908;2023-07-09T05:25:30;22.40;48.90
2751;DHT22;1383;48.362;10.908;2023-07-09T05:27:57;22.80;47.30
2751;DHT22;1383;48.362;10.908;2023-07-09T05:30:24;23.20;45.70
2751;DHT22;1383;48.362;10.908;2023-07-09T05:32:51;23.70;44.20
2751;DHT22;1383;48.362;10.908;2023-07-09T05:35:20;24.20;42.70
2751;DHT22;1383;48.362;10.908;2023-07-09T05:37:47;24.70;40.90
2751;DHT22;1383;48.362;10.908;2023-07-09T05:40:14;25.00;40.00
2751;DHT22;1383;48.362;10.908;2023-07-09T05:42:41;25.20;38.50
2751;DHT22;1383;48.362;10.908;2023-07-09T05:45:08;25.60;38.10
2751;DHT22;1383;48.362;10.908;2023-07-09T05:47:35;25.90;37.00
2751;DHT22;1383;48.362;10.908;2023-07-09T05:50:03;26.30;35.80
2751;DHT22;1383;48.362;10.908;2023-07-09T05:52:30;26.80;34.60
2751;DHT22;1383;48.362;10.908;2023-07-09T05:54:58;27.10;33.00
2751;DHT22;1383;48.362;10.908;2023-07-09T05:57:26;27.40;32.20
2751;DHT22;1383;48.362;10.908;2023-07-09T05:59:53;27.80;31.00
2751;DHT22;1383;48.362;10.908;2023-07-09T06:02:20;28.10;30.30
2751;DHT22;1383;48.362;10.908;2023-07-09T06:04:48;28.50;29.30
2751;DHT22;1383;48.362;10.908;2023-07-09T06:07:18;28.80;28.90
2751;DHT22;1383;48.362;10.908;2023-07-09T06:09:45;29.10;27.70
2751;DHT22;1383;48.362;10.908;2023-07-09T06:12:12;29.30;27.30
2751;DHT22;1383;48.362;10.908;2023-07-09T06:14:39;29.30;26.70
2751;DHT22;1383;48.362;10.908;2023-07-09T06:17:06;29.50;26.70
2751;DHT22;1383;48.362;10.908;2023-07-09T06:19:34;29.70;26.50
2751;DHT22;1383;48.362;10.908;2023-07-09T06:22:00;29.80;25.50
2751;DHT22;1383;48.362;10.908;2023-07-09T06:24:27;29.90;25.80
2751;DHT22;1383;48.362;10.908;2023-07-09T06:26:54;30.00;25.80
2751;DHT22;1383;48.362;10.908;2023-07-09T06:29:21;30.30;26.10
2751;DHT22;1383;48.362;10.908;2023-07-09T06:31:48;30.40;25.40
2751;DHT22;1383;48.362;10.908;2023-07-09T06:34:15;30.70;24.90
2751;DHT22;1383;48.362;10.908;2023-07-09T06:36:42;31.00;24.40
2751;DHT22;1383;48.362;10.908;2023-07-09T06:39:10;31.10;24.10
2751;DHT22;1383;48.362;10.908;2023-07-09T06:41:37;31.40;24.10
2751;DHT22;1383;48.362;10.908;2023-07-09T06:44:07;31.80;23.70
2751;DHT22;1383;48.362;10.908;2023-07-09T06:46:34;31.60;23.70
2751;DHT22;1383;48.362;10.908;2023-07-09T06:49:03;31.40;23.80
2751;DHT22;1383;48.362;10.908;2023-07-09T06:51:32;31.50;23.70
2751;DHT22;1383;48.362;10.908;2023-07-09T06:53:59;31.70;23.50
2751;DHT22;1383;48.362;10.908;2023-07-09T06:56:27;31.70;23.70
2751;DHT22;1383;48.362;10.908;2023-07-09T06:58:54;31.70;23.90
2751;DHT22;1383;48.362;10.908;2023-07-09T07:01:21;31.90;23.50
2751;DHT22;1383;48.362;10.908;2023-07-09T07:03:48;32.20;22.80
2751;DHT22;1383;48.362;10.908;2023-07-09T07:06:16;32.50;21.90
2751;DHT22;1383;48.362;10.908;2023-07-09T07:08:43;32.60;22.10
2751;DHT22;1383;48.362;10.908;2023-07-09T07:11:10;32.60;21.80
2751;DHT22;1383;48.362;10.908;2023-07-09T07:13:40;32.70;21.80
2751;DHT22;1383;48.362;10.908;2023-07-09T07:16:10;32.80;21.60
2751;DHT22;1383;48.362;10.908;2023-07-09T07:18:37;33.00;21.30
2751;DHT22;1383;48.362;10.908;2023-07-09T07:21:05;33.30;21.00
2751;DHT22;1383;48.362;10.908;2023-07-09T07:23:32;33.60;20.40
2751;DHT22;1383;48.362;10.908;2023-07-09T07:25:59;33.90;20.40
2751;DHT22;1383;48.362;10.908;2023-07-09T07:28:26;34.20;19.80
2751;DHT22;1383;48.362;10.908;2023-07-09T07:31:01;34.40;18.50
2751;DHT22;1383;48.362;10.908;2023-07-09T07:33:29;34.50;17.30
2751;DHT22;1383;48.362;10.908;2023-07-09T07:35:56;34.50;17.60
2751;DHT22;1383;48.362;10.908;2023-07-09T07:38:42;34.90;17.30
2751;DHT22;1383;48.362;10.908;2023-07-09T07:41:09;35.30;16.30
2751;DHT22;1383;48.362;10.908;2023-07-09T07:43:37;35.20;16.40
2751;DHT22;1383;48.362;10.908;2023-07-09T07:46:05;35.30;16.30
2751;DHT22;1383;48.362;10.908;2023-07-09T07:48:33;35.30;16.60
2751;DHT22;1383;48.362;10.908;2023-07-09T07:51:03;35.30;16.30
2751;DHT22;1383;48.362;10.908;2023-07-09T07:53:31;35.60;15.80
2751;DHT22;1383;48.362;10.908;2023-07-09T07:55:58;35.90;15.00
2751;DHT22;1383;48.362;10.908;2023-07-09T07:58:26;36.10;14.40
2751;DHT22;1383;48.362;10.908;2023-07-09T08:00:57;36.10;14.70
2751;DHT22;1383;48.362;10.908;2023-07-09T08:03:24;36.00;14.20
2751;DHT22;1383;48.362;10.908;2023-07-09T08:05:52;36.10;13.60
2751;DHT22;1383;48.362;10.908;2023-07-09T08:08:19;36.40;14.00
2751;DHT22;1383;48.362;10.908;2023-07-09T08:10:46;36.70;13.90
2751;DHT22;1383;48.362;10.908;2023-07-09T08:13:15;36.80;13.50
2751;DHT22;1383;48.362;10.908;2023-07-09T08:15:43;37.20;13.40
2751;DHT22;1383;48.362;10.908;2023-07-09T08:18:14;37.20;13.10
2751;DHT22;1383;48.362;10.908;2023-07-09T08:20:45;36.50;12.90
2751;DHT22;1383;48.362;10.908;2023-07-09T08:23:16;36.30;13.60
2751;DHT22;1383;48.362;10.908;2023-07-09T19:14:48;29.90;18.20
2751;DHT22;1383;48.362;10.908;2023-07-09T19:17:17;29.90;19.70
2751;DHT22;1383;48.362;10.908;2023-07-09T19:19:47;29.80;19.80
2751;DHT22;1383;48.362;10.908;2023-07-09T19:22:15;29.70;20.00
2751;DHT22;1383;48.362;10.908;2023-07-09T19:24:43;29.60;19.90
2751;DHT22;1383;48.362;10.908;2023-07-09T19:27:11;29.60;20.20
2751;DHT22;1383;48.362;10.908;2023-07-09T19:29:38;29.50;20.60
2751;DHT22;1383;48.362;10.908;2023-07-09T19:32:26;29.40;20.90
2751;DHT22;1383;48.362;10.908;2023-07-09T19:34:54;29.40;21.00
2751;DHT22;1383;48.362;10.908;2023-07-09T19:37:25;29.30;20.80
2751;DHT22;1383;48.362;10.908;2023-07-09T19:39:59;29.20;20.50
2751;DHT22;1383;48.362;10.908;2023-07-09T19:42:26;29.10;20.90
2751;DHT22;1383;48.362;10.908;2023-07-09T19:44:53;29.10;20.80
2751;DHT22;1383;48.362;10.908;2023-07-09T19:47:23;29.00;21.00
2751;DHT22;1383;48.362;10.908;2023-07-09T19:49:54;28.90;20.90
2751;DHT22;1383;48.362;10.908;2023-07-09T19:52:22;28.90;21.20
2751;DHT22;1383;48.362;10.908;2023-07-09T19:54:49;28.80;21.10
2751;DHT22;1383;48.362;10.908;2023-07-09T19:57:16;28.70;22.10
2751;DHT22;1383;48.362;10.908;2023-07-09T19:59:43;28.60;22.20
2751;DHT22;1383;48.362;10.908;2023-07-09T20:02:23;28.60;21.70
2751;DHT22;1383;48.362;10.908;2023-07-09T20:04:52;28.50;21.80
2751;DHT22;1383;48.362;10.908;2023-07-09T20:07:18;28.40;22.00
2751;DHT22;1383;48.362;10.908;2023-07-09T20:10:02;28.30;22.00
2751;DHT22;1383;48.362;10.908;2023-07-09T20:12:29;28.10;22.90
2751;DHT22;1383;48.362;10.908;2023-07-09T20:14:57;28.00;22.30
2751;DHT22;1383;48.362;10.908;2023-07-09T20:17:24;27.90;22.40
2751;DHT22;1383;48.362;10.908;2023-07-09T20:19:50;27.80;22.90
2751;DHT22;1383;48.362;10.908;2023-07-09T20:22:23;27.70;23.10
2751;DHT22;1383;48.362;10.908;2023-07-09T20:24:50;27.70;23.20
2751;DHT22;1383;48.362;10.908;2023-07-09T20:27:20;27.60;23.20
2751;DHT22;1383;48.362;10.908;2023-07-09T20:29:47;27.70;23.40
2751;DHT22;1383;48.362;10.908;2023-07-09T20:32:16;27.70;23.40
2751;DHT22;1383;48.362;10.908;2023-07-09T20:34:52;27.60;23.00
2751;DHT22;1383;48.362;10.908;2023-07-09T20:37:19;27.60;23.50
2751;DHT22;1383;48.362;10.908;2023-07-09T20:39:46;27.50;23.80
2751;DHT22;1383;48.362;10.908;2023-07-09T20:42:13;27.40;23.90
2751;DHT22;1383;48.362;10.908;2023-07-09T20:44:44;27.30;24.00
2751;DHT22;1383;48.362;10.908;2023-07-09T20:47:15;27.20;24.60
2751;DHT22;1383;48.362;10.908;2023-07-09T20:49:42;27.10;24.80
2751;DHT22;1383;48.362;10.908;2023-07-09T20:52:10;27.00;24.90
2751;DHT22;1383;48.362;10.908;2023-07-09T20:54:42;27.00;25.10
2751;DHT22;1383;48.362;10.908;2023-07-09T20:57:17;27.00;25.30
2751;DHT22;1383;48.362;10.908;2023-07-09T20:59:45;26.90;25.10
2751;DHT22;1383;48.362;10.908;2023-07-09T21:02:21;26.90;25.20
2751;DHT22;1383;48.362;10.908;2023-07-09T21:04:49;26.80;25.10
2751;DHT22;1383;48.362;10.908;2023-07-09T21:07:16;26.80;25.50
2751;DHT22;1383;48.362;10.908;2023-07-09T21:09:43;26.80;25.40
2751;DHT22;1383;48.362;10.908;2023-07-09T21:12:11;26.80;26.10
2751;DHT22;1383;48.362;10.908;2023-07-09T21:14:38;26.80;25.40
2751;DHT22;1383;48.362;10.908;2023-07-09T21:17:08;26.70;25.70
2751;DHT22;1383;48.362;10.908;2023-07-09T21:19:37;26.70;25.60
2751;DHT22;1383;48.362;10.908;2023-07-09T21:22:13;26.70;25.70
2751;DHT22;1383;48.362;10.908;2023-07-09T21:25:26;26.60;25.60
2751;DHT22;1383;48.362;10.908;2023-07-09T21:27:53;26.60;26.10
2751;DHT22;1383;48.362;10.908;2023-07-09T21:30:21;26.60;26.20
2751;DHT22;1383;48.362;10.908;2023-07-09T21:32:51;26.50;26.10
2751;DHT22;1383;48.362;10.908;2023-07-09T21:35:25;26.50;26.20
2751;DHT22;1383;48.362;10.908;2023-07-09T21:37:55;26.40;26.10
2751;DHT22;1383;48.362;10.908;2023-07-09T21:40:34;26.20;26.70
2751;DHT22;1383;48.362;10.908;2023-07-09T21:43:03;26.10;27.00
2751;DHT22;1383;48.362;10.908;2023-07-09T21:45:34;26.10;27.80
2751;DHT22;1383;48.362;10.908;2023-07-09T21:48:05;26.00;28.30
2751;DHT22;1383;48.362;10.908;2023-07-09T21:50:33;25.90;28.80
2751;DHT22;1383;48.362;10.908;2023-07-09T21:53:00;25.90;29.30
2751;DHT22;1383;48.362;10.908;2023-07-09T21:55:27;25.80;29.70
2751;DHT22;1383;48.362;10.908;2023-07-09T21:57:55;25.80;30.00
2751;DHT22;1383;48.362;10.908;2023-07-09T22:00:27;25.70;30.20
2751;DHT22;1383;48.362;10.908;2023-07-09T22:02:54;25.70;30.60
2751;DHT22;1383;48.362;10.908;2023-07-09T22:05:27;25.60;30.60
2751;DHT22;1383;48.362;10.908;2023-07-09T22:07:56;25.50;31.10
2751;DHT22;1383;48.362;10.908;2023-07-09T22:12:55;25.40;31.40
2751;DHT22;1383;48.362;10.908;2023-07-09T22:15:25;25.30;31.70
2751;DHT22;1383;48.362;10.908;2023-07-09T22:17:53;25.30;32.30
2751;DHT22;1383;48.362;10.908;2023-07-09T22:20:22;25.20;33.10
2751;DHT22;1383;48.362;10.908;2023-07-09T22:22:49;25.20;33.10
2751;DHT22;1383;48.362;10.908;2023-07-09T22:25:19;25.20;33.10
2751;DHT22;1383;48.362;10.908;2023-07-09T22:27:46;25.10;33.60
2751;DHT22;1383;48.362;10.908;2023-07-09T22:30:15;25.00;33.80
2751;DHT22;1383;48.362;10.908;2023-07-09T22:32:45;24.90;34.20
2751;DHT22;1383;48.362;10.908;2023-07-09T22:35:14;24.90;34.60
2751;DHT22;1383;48.362;10.908;2023-07-09T22:37:43;24.80;34.60
2751;DHT22;1383;48.362;10.908;2023-07-09T22:40:19;24.70;34.80
2751;DHT22;1383;48.362;10.908;2023-07-09T22:42:47;24.70;35.20
2751;DHT22;1383;48.362;10.908;2023-07-09T22:45:16;24.60;35.20
2751;DHT22;1383;48.362;10.908;2023-07-09T22:47:43;24.60;35.70
2751;DHT22;1383;48.362;10.908;2023-07-09T22:50:26;24.60;36.30
2751;DHT22;1383;48.362;10.908;2023-07-09T22:52:54;24.60;36.60
2751;DHT22;1383;48.362;10.908;2023-07-09T22:57:55;24.40;36.70
2751;DHT22;1383;48.362;10.908;2023-07-09T23:00:22;24.30;36.90
2751;DHT22;1383;48.362;10.908;2023-07-09T23:02:49;24.30;36.80
2751;DHT22;1383;48.362;10.908;2023-07-09T23:05:16;24.20;36.80
2751;DHT22;1383;48.362;10.908;2023-07-09T23:07:43;24.20;37.00
2751;DHT22;1383;48.362;10.908;2023-07-09T23:10:10;24.20;36.80
2751;DHT22;1383;48.362;10.908;2023-07-09T23:12:38;24.20;37.10
2751;DHT22;1383;48.362;10.908;2023-07-09T23:15:22;24.10;37.10
2751;DHT22;1383;48.362;10.908;2023-07-09T23:17:55;24.10;37.60
2751;DHT22;1383;48.362;10.908;2023-07-09T23:20:23;24.10;37.40
2751;DHT22;1383;48.362;10.908;2023-07-09T23:22:50;24.10;37.10
2751;DHT22;1383;48.362;10.908;2023-07-09T23:25:17;24.10;37.10
2751;DHT22;1383;48.362;10.908;2023-07-09T23:27:44;24.10;37.00
2751;DHT22;1383;48.362;10.908;2023-07-09T23:30:33;24.00;37.10
2751;DHT22;1383;48.362;10.908;2023-07-09T23:33:43;24.00;37.30
2751;DHT22;1383;48.362;10.908;2023-07-09T23:35:51;23.90;37.40
2751;DHT22;1383;48.362;10.908;2023-07-09T23:38:18;23.90;37.60
2751;DHT22;1383;48.362;10.908;2023-07-09T23:40:45;23.80;37.60
2751;DHT22;1383;48.362;10.908;2023-07-09T23:43:14;23.80;37.90
2751;DHT22;1383;48.362;10.908;2023-07-09T23:45:42;23.70;38.30
2751;DHT22;1383;48.362;10.908;2023-07-09T23:48:36;23.60;38.30
2751;DHT22;1383;48.362;10.908;2023-07-09T23:51:03;23.60;38.70
2751;DHT22;1383;48.362;10.908;2023-07-09T23:53:33;23.50;39.00
2751;DHT22;1383;48.362;10.908;2023-07-09T23:56:08;23.50;39.30
2751;DHT22;1383;48.362;10.908;2023-07-09T23:58:37;23.50;39.30
